createdAt,value
2023-04-02T00:01:09.011Z,99694.50
2023-04-02T00:04:14.667Z,99702.16
2023-04-02T00:06:47.565Z,99698.63
2023-04-02T00:09:34.049Z,99705.88
2023-04-02T00:12:21.198Z,99708.06
2023-04-02T00:14:55.128Z,99702.47
2023-04-02T00:17:28.019Z,99709.16
2023-04-02T00:20:06.502Z,99716.25
2023-04-02T00:22:36.533Z,99708.84
2023-04-02T00:25:16.459Z,99708.19
2023-04-02T00:27:49.511Z,99711.31
2023-04-02T00:30:19.480Z,99718.63
2023-04-02T00:32:49.568Z,99714.97
2023-04-02T00:35:27.933Z,99719.91
2023-04-02T00:38:00.124Z,99719.81
2023-04-02T00:40:34.327Z,99715.94
2023-04-02T00:43:16.887Z,99718.50
2023-04-02T00:45:54.858Z,99726.06
2023-04-02T00:48:40.718Z,99725.88
2023-04-02T00:51:23.930Z,99721.19
2023-04-02T00:53:59.511Z,99721.72
2023-04-02T00:56:36.424Z,99718.47
2023-04-02T00:59:23.641Z,99721.59
2023-04-02T01:01:57.146Z,99723.69
2023-04-02T01:04:37.904Z,99725.03
2023-04-02T01:07:13.423Z,99724.34
2023-04-02T01:10:10.774Z,99730.78
2023-04-02T01:13:00.221Z,99730.22
2023-04-02T01:15:41.388Z,99724.25
2023-04-02T01:18:33.440Z,99719.59
2023-04-02T01:21:29.200Z,99724.81
2023-04-02T01:24:07.389Z,99727.66
2023-04-02T01:26:50.117Z,99723.25
2023-04-02T01:29:31.734Z,99728.81
2023-04-02T01:32:05.690Z,99728.94
2023-04-02T01:34:38.070Z,99742.75
2023-04-02T01:37:32.497Z,99745.97
2023-04-02T01:40:27.017Z,99743.81
2023-04-02T01:43:09.286Z,99739.69
2023-04-02T01:45:41.916Z,99741.88
2023-04-02T01:48:20.101Z,99745.88
2023-04-02T01:50:55.140Z,99736.66
2023-04-02T01:53:29.944Z,99743.53
2023-04-02T01:56:02.346Z,99744.84
2023-04-02T01:58:34.601Z,99750.25
2023-04-02T02:01:17.327Z,99746.84
2023-04-02T02:03:48.438Z,99752.66
2023-04-02T02:06:20.682Z,99756.97
2023-04-02T02:08:54.454Z,99753.25
2023-04-02T02:11:27.752Z,99756.59
2023-04-02T02:14:01.021Z,99771.91
2023-04-02T02:16:41.809Z,99766.75
2023-04-02T02:19:26.179Z,99775.16
2023-04-02T02:21:59.938Z,99781.22
2023-04-02T02:24:35.861Z,99781.56
2023-04-02T02:27:35.766Z,99785.94
2023-04-02T02:30:19.117Z,99786.28
2023-04-02T02:33:01.313Z,99788.47
2023-04-02T02:35:37.993Z,99787.63
2023-04-02T02:38:32.910Z,99783.94
2023-04-02T02:41:17.135Z,99783.56
2023-04-02T02:43:53.767Z,99788.66
2023-04-02T02:46:28.196Z,99787.81
2023-04-02T02:49:04.849Z,99797.06
2023-04-02T02:51:45.159Z,99800.41
2023-04-02T02:54:22.092Z,99795.41
2023-04-02T02:56:59.894Z,99792.72
2023-04-02T02:59:33.467Z,99804.31
2023-04-02T03:02:08.273Z,99805.78
2023-04-02T03:04:41.652Z,99800.94
2023-04-02T03:07:19.451Z,99801.78
2023-04-02T03:09:57.512Z,99800.41
2023-04-02T03:12:39.649Z,99815.53
2023-04-02T03:15:21.589Z,99812.72
2023-04-02T03:17:58.588Z,99815.91
2023-04-02T03:20:41.893Z,99814.56
2023-04-02T03:23:24.656Z,99820.94
2023-04-02T03:26:05.084Z,99822.97
2023-04-02T03:28:44.139Z,99824.16
2023-04-02T03:31:22.430Z,99824.28
2023-04-02T03:33:58.508Z,99826.16
2023-04-02T03:36:43.707Z,99835.75
2023-04-02T03:39:25.491Z,99831.69
2023-04-02T03:42:03.152Z,99836.75
2023-04-02T03:44:39.621Z,99837.06
2023-04-02T03:47:19.878Z,99836.06
2023-04-02T03:49:59.150Z,99849.03
2023-04-02T03:52:33.187Z,99844.66
2023-04-02T03:55:16.123Z,99849.19
2023-04-02T03:57:57.106Z,99847.84
2023-04-02T04:00:39.254Z,99856.25
2023-04-02T04:03:17.197Z,99854.56
2023-04-02T04:05:53.700Z,99861.47
2023-04-02T04:08:38.208Z,99860.28
2023-04-02T04:11:16.647Z,99859.59
2023-04-02T04:13:53.961Z,99864.34
2023-04-02T04:16:31.134Z,99863.50
2023-04-02T04:19:08.305Z,99871.38
2023-04-02T04:21:40.099Z,99870.19
2023-04-02T04:24:26.004Z,99867.50
2023-04-02T04:27:09.746Z,99876.44
2023-04-02T04:29:55.630Z,99872.56
2023-04-02T04:32:32.368Z,99877.94
2023-04-02T04:35:18.598Z,99885.84
2023-04-02T04:37:53.760Z,99893.91
2023-04-02T04:40:33.006Z,99898.09
2023-04-02T04:43:08.470Z,99903.31
2023-04-02T04:45:47.823Z,99901.97
2023-04-02T04:48:27.606Z,99907.22
2023-04-02T04:51:05.299Z,99908.88
2023-04-02T04:53:35.857Z,99918.78
2023-04-02T04:56:18.909Z,99922.50
2023-04-02T04:59:00.683Z,99921.47
2023-04-02T05:01:40.524Z,99926.03
2023-04-02T05:04:20.489Z,99929.22
2023-04-02T05:06:58.472Z,99925.00
2023-04-02T05:09:37.762Z,99925.50
2023-04-02T05:12:21.312Z,99938.66
2023-04-02T05:14:59.500Z,99936.16
2023-04-02T05:17:36.693Z,99941.69
2023-04-02T05:20:18.311Z,99949.75
2023-04-02T05:22:57.707Z,99946.72
2023-04-02T05:25:31.172Z,99955.94
2023-04-02T05:28:14.377Z,99967.69
2023-04-02T05:30:53.103Z,99968.22
2023-04-02T05:33:28.853Z,99970.94
2023-04-02T05:36:06.207Z,99971.59
2023-04-02T05:38:48.817Z,99972.41
2023-04-02T05:41:31.341Z,99979.50
2023-04-02T05:44:15.072Z,99979.00
2023-04-02T05:46:52.648Z,99984.06
2023-04-02T05:49:35.781Z,99988.09
2023-04-02T05:52:11.358Z,99992.13
2023-04-02T05:54:52.018Z,99996.00
2023-04-02T05:57:42.422Z,100000.22
2023-04-02T06:00:28.142Z,100005.94
2023-04-02T06:03:07.670Z,100000.53
2023-04-02T06:05:45.182Z,100005.94
2023-04-02T06:08:24.106Z,100013.16
2023-04-02T06:11:01.873Z,100017.03
2023-04-02T06:13:32.497Z,100024.97
2023-04-02T06:16:06.458Z,100027.13
2023-04-02T06:18:39.700Z,100025.28
2023-04-02T06:21:09.697Z,100031.19
2023-04-02T06:23:46.875Z,100032.19
2023-04-02T06:26:24.912Z,100035.88
2023-04-02T06:29:04.190Z,100046.66
2023-04-02T06:31:41.903Z,100045.13
2023-04-02T06:34:20.047Z,100048.66
2023-04-02T06:37:15.831Z,100056.75
2023-04-02T06:39:46.776Z,100058.97
2023-04-02T06:42:24.069Z,100061.66
2023-04-02T06:45:23.291Z,100067.53
2023-04-02T06:48:22.780Z,100068.56
2023-04-02T06:51:07.225Z,100073.94
2023-04-02T06:53:41.919Z,100082.69
2023-04-02T06:56:27.183Z,100084.22
2023-04-02T06:58:57.692Z,100094.00
2023-04-02T07:01:33.603Z,100092.47
2023-04-02T07:04:06.384Z,100098.19
2023-04-02T07:06:41.849Z,100102.22
2023-04-02T07:09:13.056Z,100106.91
2023-04-02T07:11:46.917Z,100103.59
2023-04-02T07:14:17.726Z,100107.28
2023-04-02T07:16:47.948Z,100113.69
2023-04-02T07:19:25.016Z,100112.66
2023-04-02T07:21:58.953Z,100115.03
2023-04-02T07:24:34.252Z,100120.25
2023-04-02T07:27:04.167Z,100120.25
2023-04-02T07:29:43.006Z,100123.78
2023-04-02T07:32:13.910Z,100135.59
2023-04-02T07:34:46.493Z,100136.91
2023-04-02T07:37:17.383Z,100139.13
2023-04-02T07:39:47.347Z,100140.59
2023-04-02T07:42:17.312Z,100146.00
2023-04-02T07:44:47.250Z,100140.59
2023-04-02T07:47:17.391Z,100157.13
2023-04-02T07:49:49.988Z,100155.47
2023-04-02T07:52:19.907Z,100159.50
2023-04-02T07:54:50.138Z,100154.44
2023-04-02T07:57:20.179Z,100163.03
2023-04-02T07:59:50.906Z,100163.88
2023-04-02T08:02:24.576Z,100170.09
2023-04-02T08:04:57.126Z,100179.00
2023-04-02T08:07:27.240Z,100182.69
2023-04-02T08:09:57.199Z,100193.19
2023-04-02T08:12:27.242Z,100195.88
2023-04-02T08:14:57.319Z,100192.72
2023-04-02T08:17:31.368Z,100189.31
2023-04-02T08:20:04.520Z,100189.31
2023-04-02T08:22:34.482Z,100194.88
2023-04-02T08:25:04.449Z,100195.81
2023-04-02T08:27:34.488Z,100203.75
2023-04-02T08:30:04.451Z,100206.00
2023-04-02T08:32:34.530Z,100198.53
2023-04-02T08:35:07.685Z,100213.88
2023-04-02T08:37:37.623Z,100206.25
2023-04-02T08:40:10.283Z,100213.38
2023-04-02T08:42:49.411Z,100222.97
2023-04-02T08:45:27.419Z,100228.28
2023-04-02T08:48:03.485Z,100227.28
2023-04-02T08:50:40.331Z,100228.97
2023-04-02T08:53:18.682Z,100241.44
2023-04-02T08:56:00.129Z,100239.28
2023-04-02T08:58:43.323Z,100247.16
2023-04-02T09:01:28.014Z,100249.81
2023-04-02T09:04:02.160Z,100252.84
2023-04-02T09:06:37.406Z,100257.72
2023-04-02T09:09:07.900Z,100252.81
2023-04-02T09:11:47.931Z,100260.34
2023-04-02T09:14:22.858Z,100271.03
2023-04-02T09:16:57.364Z,100267.13
2023-04-02T09:19:36.407Z,100275.81
2023-04-02T09:22:21.018Z,100276.78
2023-04-02T09:24:55.086Z,100272.78
2023-04-02T09:27:28.274Z,100279.63
2023-04-02T09:30:06.843Z,100284.13
2023-04-02T09:32:52.012Z,100288.22
2023-04-02T09:35:27.659Z,100289.09
2023-04-02T09:38:22.471Z,100294.31
2023-04-02T09:41:01.668Z,100290.22
2023-04-02T09:43:33.701Z,100290.81
2023-04-02T09:46:06.460Z,100300.56
2023-04-02T09:48:39.484Z,100303.19
2023-04-02T09:51:16.505Z,100295.69
2023-04-02T09:53:51.914Z,100301.75
2023-04-02T09:56:24.470Z,100306.41
2023-04-02T09:59:07.119Z,100304.28
2023-04-02T10:01:39.694Z,100303.16
2023-04-02T10:04:44.277Z,100311.63
2023-04-02T10:07:34.944Z,100314.09
2023-04-02T10:10:25.269Z,100313.56
2023-04-02T10:13:03.691Z,100312.31
2023-04-02T10:15:40.053Z,100313.31
2023-04-02T10:18:19.630Z,100319.22
2023-04-02T10:20:53.762Z,100323.03
2023-04-02T10:23:31.368Z,100327.22
2023-04-02T10:26:17.015Z,100326.38
2023-04-02T10:29:12.763Z,100326.16
2023-04-02T10:31:56.432Z,100326.41
2023-04-02T10:34:35.811Z,100336.16
2023-04-02T10:37:28.731Z,100340.72
2023-04-02T10:40:10.000Z,100339.63
2023-04-02T10:42:55.821Z,100344.16
2023-04-02T10:45:43.088Z,100344.09
2023-04-02T10:48:23.024Z,100345.53
2023-04-02T10:51:01.095Z,100361.56
2023-04-02T10:53:42.985Z,100365.47
2023-04-02T10:56:17.205Z,100366.69
2023-04-02T10:59:01.124Z,100372.16
2023-04-02T11:01:34.568Z,100375.03
2023-04-02T11:06:49.215Z,100379.56
2023-04-02T11:09:24.697Z,100367.56
2023-04-02T11:11:58.855Z,100375.69
2023-04-02T11:14:33.368Z,100378.91
2023-04-02T11:17:05.756Z,100381.28
2023-04-02T11:19:37.953Z,100384.78
2023-04-02T11:22:19.090Z,100395.94
2023-04-02T11:24:51.668Z,100390.66
2023-04-02T11:27:29.306Z,100397.31
2023-04-02T11:30:09.102Z,100394.41
2023-04-02T11:32:43.575Z,100400.75
2023-04-02T11:35:41.621Z,100400.59
2023-04-02T11:38:46.900Z,100403.31
2023-04-02T11:41:16.958Z,100404.81
2023-04-02T11:44:04.911Z,100405.75
2023-04-02T11:46:51.764Z,100407.75
2023-04-02T11:49:38.156Z,100405.28
2023-04-02T11:52:24.872Z,100407.16
2023-04-02T11:55:04.722Z,100405.06
2023-04-02T11:58:01.057Z,100400.78
2023-04-02T12:01:11.852Z,100407.56
2023-04-02T12:04:11.989Z,100403.38
2023-04-02T12:07:01.137Z,100417.41
2023-04-02T12:09:34.650Z,100422.97
2023-04-02T12:12:20.623Z,100424.53
2023-04-02T12:14:53.774Z,100426.22
2023-04-02T12:17:30.787Z,100425.06
2023-04-02T12:20:09.465Z,100429.50
2023-04-02T12:22:43.451Z,100424.41
2023-04-02T12:25:29.609Z,100439.88
2023-04-02T12:28:20.808Z,100441.41
2023-04-02T12:30:53.105Z,100440.19
2023-04-02T12:33:33.860Z,100447.22
2023-04-02T12:36:10.239Z,100456.03
2023-04-02T12:38:50.153Z,100467.16
2023-04-02T12:41:30.223Z,100472.03
2023-04-02T12:44:01.473Z,100468.81
2023-04-02T12:46:33.958Z,100477.56
2023-04-02T12:49:09.185Z,100486.63
2023-04-02T12:51:42.705Z,100491.31
2023-04-02T12:54:20.671Z,100498.03
2023-04-02T12:56:51.757Z,100497.41
2023-04-02T12:59:34.807Z,100504.63
2023-04-02T13:02:18.738Z,100506.72
2023-04-02T13:04:52.734Z,100505.91
2023-04-02T13:07:28.081Z,100505.16
2023-04-02T13:10:00.209Z,100509.63
2023-04-02T13:12:36.694Z,100512.25
2023-04-02T13:15:10.631Z,100507.31
2023-04-02T13:17:46.001Z,100508.22
2023-04-02T13:20:34.006Z,100515.66
2023-04-02T13:23:28.330Z,100521.66
2023-04-02T13:25:59.248Z,100515.94
2023-04-02T13:28:29.868Z,100529.03
2023-04-02T13:30:59.918Z,100531.06
2023-04-02T13:33:29.930Z,100532.06
2023-04-02T13:36:00.109Z,100533.53
2023-04-02T13:38:32.809Z,100535.50
2023-04-02T13:41:02.803Z,100545.06
2023-04-02T13:43:32.806Z,100544.25
2023-04-02T13:46:04.149Z,100548.91
2023-04-02T13:48:34.347Z,100552.63
2023-04-02T13:51:04.937Z,100552.84
2023-04-02T13:53:37.660Z,100563.53
2023-04-02T13:56:08.597Z,100565.38
2023-04-02T13:58:38.653Z,100569.63
2023-04-02T14:01:08.868Z,100574.50
2023-04-02T14:03:38.935Z,100578.56
2023-04-02T14:06:19.638Z,100579.06
2023-04-02T14:09:05.404Z,100578.22
2023-04-02T14:11:50.240Z,100585.16
2023-04-02T14:14:47.403Z,100588.34
2023-04-02T14:17:32.358Z,100595.63
2023-04-02T14:20:19.853Z,100598.50
2023-04-02T14:23:06.955Z,100602.06
2023-04-02T14:25:51.540Z,100609.81
2023-04-02T14:28:38.069Z,100613.03
2023-04-02T14:31:20.741Z,100623.16
2023-04-02T14:34:03.771Z,100621.63
2023-04-02T14:36:48.725Z,100617.69
2023-04-02T14:39:35.240Z,100614.69
2023-04-02T14:42:17.470Z,100618.56
2023-04-02T14:44:55.289Z,100619.59
2023-04-02T14:47:32.430Z,100627.88
2023-04-02T14:50:14.436Z,100634.47
2023-04-02T14:52:50.097Z,100642.56
2023-04-02T14:55:30.591Z,100653.88
2023-04-02T14:58:08.297Z,100646.78
2023-04-02T15:00:44.155Z,100641.72
2023-04-02T15:03:23.864Z,100657.22
2023-04-02T15:06:00.819Z,100652.81
2023-04-02T15:08:36.098Z,100661.44
2023-04-02T15:11:14.387Z,100661.75
2023-04-02T15:13:55.386Z,100673.09
2023-04-02T15:16:27.903Z,100676.13
2023-04-02T15:19:01.487Z,100683.03
2023-04-02T15:21:57.712Z,100685.19
2023-04-02T15:24:41.107Z,100698.00
2023-04-02T15:27:26.189Z,100695.13
2023-04-02T15:30:06.390Z,100698.28
2023-04-02T15:32:41.378Z,100701.97
2023-04-02T15:35:35.791Z,100702.94
2023-04-02T15:38:17.028Z,100708.38
2023-04-02T15:41:00.593Z,100715.38
2023-04-02T15:43:34.405Z,100723.03
2023-04-02T15:46:23.074Z,100720.78
2023-04-02T15:49:20.254Z,100723.53
2023-04-02T15:52:05.621Z,100723.78
2023-04-02T15:54:54.989Z,100722.81
2023-04-02T15:57:58.777Z,100734.28
2023-04-02T16:00:31.823Z,100736.97
2023-04-02T16:03:30.494Z,100738.63
2023-04-02T16:06:23.737Z,100745.06
2023-04-02T16:09:11.527Z,100746.06
2023-04-02T16:11:41.614Z,100757.06
2023-04-02T16:14:27.441Z,100751.81
2023-04-02T16:17:10.838Z,100760.13
2023-04-02T16:19:50.577Z,100766.72
2023-04-02T16:22:27.219Z,100776.16
2023-04-02T16:25:03.709Z,100780.59
2023-04-02T16:27:41.159Z,100779.75
2023-04-02T16:30:43.385Z,100781.03
2023-04-02T16:33:35.811Z,100791.97
2023-04-02T16:36:24.328Z,100796.16
2023-04-02T16:39:02.163Z,100792.06
2023-04-02T16:41:50.863Z,100803.25
2023-04-02T16:44:33.729Z,100801.97
2023-04-02T16:47:25.981Z,100809.94
2023-04-02T16:50:05.221Z,100811.28
2023-04-02T16:52:50.002Z,100813.09
2023-04-02T16:55:36.262Z,100822.50
2023-04-02T16:58:25.897Z,100827.81
2023-04-02T17:01:03.593Z,100835.50
2023-04-02T17:03:57.832Z,100839.34
2023-04-02T17:06:42.746Z,100841.38
2023-04-02T17:09:21.271Z,100845.34
2023-04-02T17:11:55.617Z,100850.38
2023-04-02T17:14:36.126Z,100846.81
2023-04-02T17:17:08.291Z,100858.50
2023-04-02T17:19:38.332Z,100866.16
2023-04-02T17:22:08.820Z,100866.44
2023-04-02T17:24:45.474Z,100874.34
2023-04-02T17:27:24.609Z,100879.75
2023-04-02T17:29:58.847Z,100885.63
2023-04-02T17:32:31.742Z,100893.72
2023-04-02T17:35:20.063Z,100903.22
2023-04-02T17:37:56.506Z,100894.88
2023-04-02T17:40:38.370Z,100904.22
2023-04-02T17:43:21.099Z,100912.16
2023-04-02T17:45:55.637Z,100909.88
2023-04-02T17:48:35.712Z,100917.00
2023-04-02T17:51:17.754Z,100927.53
2023-04-02T17:54:02.332Z,100936.06
2023-04-02T17:57:04.718Z,100935.09
2023-04-02T17:59:54.157Z,100944.34
2023-04-02T18:02:41.980Z,100952.84
2023-04-02T18:05:27.812Z,100956.97
2023-04-02T18:08:14.715Z,100971.59
2023-04-02T18:11:01.936Z,100978.09
2023-04-02T18:13:38.526Z,100982.06
2023-04-02T18:16:19.930Z,100986.03
2023-04-02T18:19:11.072Z,100996.63
2023-04-02T18:21:50.899Z,101002.88
2023-04-02T18:24:49.197Z,101011.25
2023-04-02T18:27:32.776Z,101014.78
2023-04-02T18:30:17.783Z,101017.75
2023-04-02T18:33:10.411Z,101033.59
2023-04-02T18:35:52.144Z,101051.16
2023-04-02T18:38:34.566Z,101055.38
2023-04-02T18:41:17.606Z,101057.06
2023-04-02T18:44:04.316Z,101060.09
2023-04-02T18:46:46.576Z,101071.56
2023-04-02T18:49:30.026Z,101072.56
2023-04-02T18:52:04.975Z,101081.38
2023-04-02T18:54:38.785Z,101092.66
2023-04-02T18:57:16.589Z,101095.59
2023-04-02T18:59:53.971Z,101106.22
2023-04-02T19:02:37.517Z,101108.50
2023-04-02T19:05:16.738Z,101112.72
2023-04-02T19:07:51.021Z,101113.84
2023-04-02T19:10:34.009Z,101123.47
2023-04-02T19:13:04.395Z,101117.22
2023-04-02T19:15:50.876Z,101131.16
2023-04-02T19:18:36.572Z,101138.25
2023-04-02T19:21:21.639Z,101147.28
2023-04-02T19:24:09.811Z,101153.59
2023-04-02T19:26:52.048Z,101158.53
2023-04-02T19:29:38.563Z,101170.31
2023-04-02T19:32:21.771Z,101169.16
2023-04-02T19:35:05.637Z,101172.75
2023-04-02T19:37:42.584Z,101179.50
2023-04-02T19:40:31.003Z,101186.72
2023-04-02T19:43:01.579Z,101195.78
2023-04-02T19:45:39.535Z,101190.75
2023-04-02T19:48:16.726Z,101196.88
2023-04-02T19:50:51.062Z,101206.88
2023-04-02T19:53:22.358Z,101208.34
2023-04-02T19:55:52.487Z,101210.28
2023-04-02T19:58:30.626Z,101211.84
2023-04-02T20:01:01.855Z,101223.22
2023-04-02T20:03:33.819Z,101215.25
2023-04-02T20:06:06.773Z,101229.41
2023-04-02T20:08:36.988Z,101231.38
2023-04-02T20:11:12.833Z,101231.66
2023-04-02T20:13:43.146Z,101229.09
2023-04-02T20:16:14.771Z,101231.56
2023-04-02T20:18:45.862Z,101237.56
2023-04-02T20:21:18.892Z,101252.56
2023-04-02T20:23:49.034Z,101257.59
2023-04-02T20:26:19.176Z,101261.75
2023-04-02T20:28:49.499Z,101273.69
2023-04-02T20:31:24.005Z,101269.78
2023-04-02T20:33:58.243Z,101277.00
2023-04-02T20:36:31.462Z,101291.16
2023-04-02T20:39:01.677Z,101286.75
2023-04-02T20:41:31.944Z,101292.25
2023-04-02T20:44:02.244Z,101293.94
2023-04-02T20:46:33.775Z,101297.75
2023-04-02T20:49:04.087Z,101300.28
2023-04-02T20:51:37.691Z,101310.56
2023-04-02T20:54:08.010Z,101307.13
2023-04-02T20:56:39.991Z,101311.28
2023-04-02T20:59:13.301Z,101308.47
2023-04-02T21:01:45.658Z,101318.44
2023-04-02T21:04:16.450Z,101327.97
2023-04-02T21:06:57.343Z,101329.44
2023-04-02T21:10:04.380Z,101327.13
2023-04-02T21:12:35.824Z,101330.53
2023-04-02T21:15:05.982Z,101327.25
2023-04-02T21:17:36.102Z,101332.13
2023-04-02T21:20:06.609Z,101339.56
2023-04-02T21:22:39.185Z,101346.63
2023-04-02T21:25:09.973Z,101341.88
2023-04-02T21:27:39.904Z,101349.16
2023-04-02T21:30:11.586Z,101348.56
2023-04-02T21:32:41.585Z,101356.13
2023-04-02T21:35:12.209Z,101353.56
2023-04-02T21:37:45.393Z,101348.19
2023-04-02T21:40:15.394Z,101360.00
2023-04-02T21:42:45.323Z,101348.09
2023-04-02T21:45:15.629Z,101344.19
2023-04-02T21:47:45.814Z,101348.47
2023-04-02T21:50:15.913Z,101337.34
2023-04-02T21:52:48.472Z,101346.88
2023-04-02T21:55:18.834Z,101338.59
2023-04-02T21:57:48.761Z,101335.16
2023-04-02T22:00:19.352Z,101347.09
2023-04-02T22:02:49.501Z,101338.97
2023-04-02T22:05:19.705Z,101344.66
2023-04-02T22:07:52.435Z,101339.78
2023-04-02T22:10:22.430Z,101345.47
2023-04-02T22:12:52.884Z,101350.47
2023-04-02T22:15:22.875Z,101349.50
2023-04-02T22:17:53.048Z,101356.84
2023-04-02T22:20:23.272Z,101355.06
2023-04-02T22:22:56.711Z,101365.53
2023-04-02T22:25:26.760Z,101362.78
2023-04-02T22:27:56.686Z,101365.56
2023-04-02T22:30:30.115Z,101364.34
2023-04-02T22:33:00.255Z,101367.88
2023-04-02T22:35:32.026Z,101362.84
2023-04-02T22:38:06.950Z,101363.56
2023-04-02T22:40:37.352Z,101368.47
2023-04-02T22:43:07.592Z,101366.84
2023-04-02T22:45:37.726Z,101375.28
2023-04-02T22:48:07.904Z,101375.75
2023-04-02T22:50:38.097Z,101376.78
2023-04-02T22:53:12.095Z,101367.59
2023-04-02T22:55:42.222Z,101372.78
2023-04-02T22:58:12.252Z,101372.38
2023-04-02T23:00:42.473Z,101373.34
2023-04-02T23:03:12.586Z,101372.59
2023-04-02T23:05:43.124Z,101374.28
2023-04-02T23:08:18.185Z,101372.38
2023-04-02T23:10:51.586Z,101365.88
2023-04-02T23:13:21.510Z,101371.31
2023-04-02T23:15:51.697Z,101364.06
2023-04-02T23:18:21.884Z,101375.75
2023-04-02T23:20:51.929Z,101369.53
2023-04-02T23:23:24.775Z,101364.28
2023-04-02T23:26:05.882Z,101369.78
2023-04-02T23:28:36.374Z,101372.22
2023-04-02T23:31:08.825Z,101368.00
2023-04-02T23:33:38.843Z,101366.97
2023-04-02T23:36:14.259Z,101369.78
2023-04-02T23:38:46.917Z,101370.66
2023-04-02T23:41:18.070Z,101370.44
2023-04-02T23:43:47.999Z,101368.41
2023-04-02T23:46:18.028Z,101370.84
2023-04-02T23:48:48.915Z,101376.59
2023-04-02T23:51:19.529Z,101369.19
2023-04-02T23:53:52.903Z,101366.53
2023-04-02T23:56:23.317Z,101366.75
2023-04-02T23:58:53.957Z,101368.56
